createdAt,value
2023-04-19T00:01:41.457Z,3.00
2023-04-19T00:04:08.377Z,3.00
2023-04-19T00:06:35.938Z,3.00
2023-04-19T00:09:02.753Z,2.80
2023-04-19T00:11:29.633Z,2.90
2023-04-19T00:13:56.250Z,2.80
2023-04-19T00:16:22.898Z,2.90
2023-04-19T00:18:50.194Z,3.20
2023-04-19T00:21:16.807Z,3.20
2023-04-19T00:23:43.649Z,2.90
2023-04-19T00:26:11.135Z,3.00
2023-04-19T00:28:38.156Z,3.20
2023-04-19T00:31:04.995Z,2.90
2023-04-19T00:33:32.590Z,2.90
2023-04-19T00:35:59.193Z,3.20
2023-04-19T00:38:25.770Z,3.10
2023-04-19T00:40:52.424Z,3.10
2023-04-19T00:43:19.616Z,2.90
2023-04-19T00:45:46.273Z,3.10
2023-04-19T00:48:13.321Z,2.90
2023-04-19T00:50:41.029Z,2.60
2023-04-19T00:53:07.643Z,3.00
2023-04-19T00:55:34.474Z,2.50
2023-04-19T00:58:01.317Z,2.80
2023-04-19T01:00:28.094Z,2.70
2023-04-19T01:02:55.353Z,3.10
2023-04-19T01:05:22.890Z,2.80
2023-04-19T01:07:50.914Z,2.60
2023-04-19T01:10:18.083Z,3.10
2023-04-19T01:12:45.248Z,2.70
2023-04-19T01:15:11.813Z,2.80
2023-04-19T01:17:38.628Z,2.90
2023-04-19T01:20:07.446Z,3.10
2023-04-19T01:22:37.218Z,2.70
2023-04-19T01:25:05.989Z,2.90
2023-04-19T01:27:32.774Z,3.30
2023-04-19T01:29:59.411Z,3.30
2023-04-19T01:32:27.127Z,3.20
2023-04-19T01:34:55.911Z,3.00
2023-04-19T01:37:22.679Z,2.90
2023-04-19T01:39:49.773Z,2.60
2023-04-19T01:42:16.461Z,3.00
2023-04-19T01:44:43.082Z,3.10
2023-04-19T01:47:09.762Z,3.20
2023-04-19T01:49:36.536Z,3.20
2023-04-19T01:52:03.299Z,2.90
2023-04-19T01:54:30.415Z,3.00
2023-04-19T01:56:57.971Z,3.30
2023-04-19T01:59:25.342Z,3.00
2023-04-19T02:01:52.034Z,2.90
2023-04-19T02:04:20.064Z,3.30
2023-04-19T02:06:46.957Z,2.70
2023-04-19T02:09:13.582Z,3.00
2023-04-19T02:11:42.115Z,2.60
2023-04-19T02:14:08.966Z,2.80
2023-04-19T02:16:36.467Z,3.00
2023-04-19T02:19:04.052Z,3.00
2023-04-19T02:21:31.369Z,3.30
2023-04-19T02:23:58.106Z,3.10
2023-04-19T02:26:24.873Z,3.10
2023-04-19T02:28:52.406Z,2.80
2023-04-19T02:31:19.121Z,2.90
2023-04-19T02:33:46.214Z,3.20
2023-04-19T02:36:12.864Z,3.00
2023-04-19T02:38:40.137Z,3.10
2023-04-19T02:41:06.820Z,3.30
2023-04-19T02:43:33.783Z,3.90
2023-04-19T02:46:01.219Z,3.10
2023-04-19T02:48:28.000Z,3.30
2023-04-19T02:50:56.462Z,3.20
2023-04-19T02:53:23.515Z,3.40
2023-04-19T02:55:50.500Z,3.40
2023-04-19T02:58:19.480Z,3.30
2023-04-19T03:01:00.181Z,3.30
2023-04-19T03:03:27.141Z,3.50
2023-04-19T03:05:54.311Z,3.40
2023-04-19T03:08:21.873Z,3.30
2023-04-19T03:10:49.611Z,3.00
2023-04-19T03:13:16.220Z,3.40
2023-04-19T03:15:42.942Z,3.40
2023-04-19T03:18:10.005Z,3.20
2023-04-19T03:20:36.929Z,3.30
2023-04-19T03:23:03.751Z,3.30
2023-04-19T03:25:32.706Z,3.30
2023-04-19T03:28:09.262Z,3.50
2023-04-19T03:30:53.573Z,3.50
2023-04-19T03:33:20.472Z,3.40
2023-04-19T03:35:47.613Z,3.50
2023-04-19T03:38:15.574Z,3.10
2023-04-19T03:40:42.905Z,3.70
2023-04-19T03:43:09.887Z,3.20
2023-04-19T03:45:36.508Z,3.40
2023-04-19T03:48:03.591Z,3.20
2023-04-19T03:50:30.715Z,3.30
2023-04-19T03:52:57.554Z,3.60
2023-04-19T03:55:24.926Z,3.60
2023-04-19T03:57:52.142Z,4.20
2023-04-19T04:00:24.264Z,2.80
2023-04-19T04:02:54.324Z,3.90
2023-04-19T04:05:21.367Z,3.50
2023-04-19T04:07:48.137Z,4.20
2023-04-19T04:10:15.029Z,3.70
2023-04-19T04:12:42.887Z,3.60
2023-04-19T04:15:11.178Z,3.40
2023-04-19T04:17:41.754Z,3.50
2023-04-19T04:20:09.325Z,3.60
2023-04-19T04:22:36.957Z,3.60
2023-04-19T04:25:04.244Z,3.70
2023-04-19T04:27:37.365Z,3.40
2023-04-19T04:30:06.022Z,3.60
2023-04-19T04:32:35.969Z,3.60
2023-04-19T04:35:04.641Z,4.20
2023-04-19T04:37:49.672Z,3.80
2023-04-19T04:40:16.385Z,3.90
2023-04-19T04:42:44.898Z,4.90
2023-04-19T04:45:12.472Z,5.20
2023-04-19T04:47:39.881Z,4.60
2023-04-19T04:50:07.506Z,4.80
2023-04-19T04:52:34.234Z,4.90
2023-04-19T04:55:07.116Z,4.70
2023-04-19T04:57:35.876Z,4.20
2023-04-19T05:00:06.028Z,4.10
2023-04-19T05:02:37.455Z,5.00
2023-04-19T05:05:05.128Z,4.50
2023-04-19T05:07:32.821Z,4.50
2023-04-19T05:10:01.682Z,4.30
2023-04-19T05:12:33.534Z,4.30
2023-04-19T05:15:00.600Z,4.30
2023-04-19T05:17:28.148Z,4.00
2023-04-19T05:19:54.837Z,4.40
2023-04-19T05:22:21.907Z,4.20
2023-04-19T05:24:49.820Z,4.50
2023-04-19T05:27:16.708Z,4.00
2023-04-19T05:29:44.075Z,4.10
2023-04-19T05:32:11.094Z,5.00
2023-04-19T05:34:44.604Z,4.20
2023-04-19T05:37:12.696Z,3.60
2023-04-19T05:39:41.037Z,4.60
2023-04-19T05:42:09.154Z,4.20
2023-04-19T05:44:36.239Z,4.10
2023-04-19T05:47:03.083Z,4.10
2023-04-19T05:50:05.741Z,3.60
2023-04-19T05:52:37.486Z,3.90
2023-04-19T05:55:05.386Z,4.20
2023-04-19T05:57:33.197Z,3.90
2023-04-19T06:02:44.167Z,5.00
2023-04-19T06:05:12.843Z,4.90
2023-04-19T06:07:43.228Z,4.50
2023-04-19T06:10:13.872Z,5.30
2023-04-19T06:12:41.617Z,4.70
2023-04-19T06:15:08.855Z,4.80
2023-04-19T06:17:36.703Z,5.40
2023-04-19T06:20:06.479Z,5.50
2023-04-19T06:22:33.489Z,7.20
2023-04-19T06:25:00.817Z,6.90
2023-04-19T06:27:27.495Z,5.20
2023-04-19T06:29:54.759Z,5.60
2023-04-19T06:32:21.602Z,5.60
2023-04-19T06:34:48.425Z,5.30
2023-04-19T06:37:15.159Z,5.20
2023-04-19T06:39:42.186Z,4.90
2023-04-19T06:42:09.162Z,5.50
2023-04-19T06:44:38.813Z,4.70
2023-04-19T06:47:07.178Z,5.30
2023-04-19T06:49:34.521Z,5.00
2023-04-19T06:52:01.352Z,6.00
2023-04-19T06:54:28.517Z,6.30
2023-04-19T06:56:56.832Z,5.50
2023-04-19T06:59:29.600Z,5.20
2023-04-19T07:01:58.266Z,4.80
2023-04-19T07:04:34.580Z,4.50
2023-04-19T07:07:01.637Z,4.30
2023-04-19T07:09:28.681Z,4.50
2023-04-19T07:11:55.461Z,4.60
2023-04-19T07:14:23.318Z,4.40
2023-04-19T07:16:50.976Z,4.60
2023-04-19T07:19:20.105Z,4.60
2023-04-19T07:21:47.030Z,4.60
2023-04-19T07:24:14.111Z,4.30
2023-04-19T07:26:41.122Z,4.20
2023-04-19T07:29:08.811Z,3.80
2023-04-19T07:31:36.368Z,3.90
2023-04-19T07:34:03.644Z,4.00
2023-04-19T07:36:31.200Z,4.30
2023-04-19T07:38:58.090Z,3.80
2023-04-19T07:41:25.074Z,4.60
2023-04-19T07:43:52.061Z,3.90
2023-04-19T07:46:18.971Z,3.80
2023-04-19T07:48:46.030Z,3.80
2023-04-19T07:51:16.553Z,3.80
2023-04-19T07:53:43.480Z,4.70
2023-04-19T07:56:12.747Z,4.00
2023-04-19T07:58:40.775Z,4.20
2023-04-19T08:01:07.533Z,4.20
2023-04-19T08:03:35.787Z,3.60
2023-04-19T08:06:08.307Z,3.50
2023-04-19T08:08:36.216Z,3.80
2023-04-19T08:11:04.747Z,3.50
2023-04-19T08:13:31.936Z,3.90
2023-04-19T08:18:28.716Z,3.80
2023-04-19T08:20:56.553Z,3.90
2023-04-19T08:23:29.481Z,3.90
2023-04-19T08:26:02.183Z,3.90
2023-04-19T08:28:31.926Z,3.80
2023-04-19T08:31:00.810Z,3.60
2023-04-19T08:33:28.366Z,3.60
2023-04-19T08:35:55.391Z,4.20
2023-04-19T08:38:22.464Z,3.70
2023-04-19T08:40:53.232Z,3.50
2023-04-19T08:43:20.612Z,3.80
2023-04-19T08:45:49.622Z,3.70
2023-04-19T08:48:17.358Z,3.70
2023-04-19T08:51:03.561Z,3.80
2023-04-19T08:53:35.456Z,3.90
2023-04-19T09:01:06.489Z,3.40
2023-04-19T09:03:44.014Z,4.60
2023-04-19T09:06:18.608Z,3.70
2023-04-19T09:08:45.579Z,3.60
2023-04-19T09:11:12.595Z,3.40
2023-04-19T09:13:43.464Z,3.80
2023-04-19T09:16:24.354Z,3.70
2023-04-19T09:19:08.146Z,3.40
2023-04-19T09:21:42.295Z,4.10
2023-04-19T09:24:09.246Z,3.50
2023-04-19T09:26:36.144Z,3.80
2023-04-19T09:29:06.478Z,4.20
2023-04-19T09:31:51.064Z,3.90
2023-04-19T09:34:18.833Z,3.20
2023-04-19T09:36:46.622Z,4.20
2023-04-19T09:39:14.111Z,3.50
2023-04-19T09:41:52.089Z,4.00
2023-04-19T09:46:53.154Z,4.00
2023-04-19T09:52:04.184Z,4.40
2023-04-19T09:54:32.096Z,4.00
2023-04-19T09:57:01.322Z,3.40
2023-04-19T09:59:28.823Z,3.80
2023-04-19T10:01:55.877Z,4.20
2023-04-19T10:04:33.293Z,4.90
2023-04-19T10:07:29.064Z,4.50
2023-04-19T10:10:04.936Z,4.60
2023-04-19T10:15:29.487Z,4.60
2023-04-19T10:18:00.891Z,4.30
2023-04-19T10:20:39.408Z,4.20
2023-04-19T10:23:09.182Z,4.80
2023-04-19T10:25:36.661Z,4.70
2023-04-19T10:28:03.523Z,4.70
2023-04-19T10:30:30.750Z,4.70
2023-04-19T10:33:02.453Z,5.20
2023-04-19T10:35:37.015Z,5.00
2023-04-19T10:38:03.854Z,5.10
2023-04-19T10:41:03.395Z,5.20
2023-04-19T10:43:31.180Z,5.10
2023-04-19T10:46:08.886Z,5.30
2023-04-19T10:48:43.142Z,5.70
2023-04-19T10:51:18.905Z,4.90
2023-04-19T10:53:48.945Z,4.90
2023-04-19T10:56:36.069Z,6.00
2023-04-19T10:59:10.637Z,5.40
2023-04-19T11:01:43.750Z,5.50
2023-04-19T11:04:11.550Z,5.90
2023-04-19T11:06:55.676Z,5.20
2023-04-19T11:09:28.221Z,5.50
2023-04-19T11:12:02.236Z,4.80
2023-04-19T11:14:31.537Z,5.00
2023-04-19T11:16:59.396Z,5.10
2023-04-19T11:19:26.509Z,4.70
2023-04-19T11:21:53.404Z,4.20
2023-04-19T11:24:20.467Z,4.50
2023-04-19T11:26:50.806Z,4.50
2023-04-19T11:29:19.721Z,4.40
2023-04-19T11:31:46.574Z,5.20
2023-04-19T11:34:13.964Z,4.90
2023-04-19T11:36:50.575Z,4.70
2023-04-19T11:39:18.185Z,5.20
2023-04-19T11:41:47.229Z,5.40
2023-04-19T11:44:19.778Z,4.80
2023-04-19T11:47:04.504Z,5.30
2023-04-19T11:49:32.671Z,5.10
2023-04-19T11:52:00.392Z,4.90
2023-04-19T11:54:27.538Z,4.60
2023-04-19T11:57:04.202Z,4.40
2023-04-19T11:59:32.112Z,5.40
2023-04-19T12:02:17.501Z,4.40
2023-04-19T12:04:44.324Z,4.10
2023-04-19T12:07:11.555Z,5.30
2023-04-19T12:09:38.764Z,5.10
2023-04-19T12:12:06.274Z,5.30
2023-04-19T12:14:33.745Z,4.60
2023-04-19T12:17:04.845Z,4.80
2023-04-19T12:19:36.525Z,5.10
2023-04-19T12:22:17.023Z,5.70
2023-04-19T12:24:43.962Z,4.10
2023-04-19T12:27:11.244Z,4.10
2023-04-19T12:29:38.571Z,4.30
2023-04-19T12:32:05.675Z,5.70
2023-04-19T12:34:32.749Z,4.60
2023-04-19T12:36:59.652Z,4.10
2023-04-19T12:39:27.665Z,5.00
2023-04-19T12:41:54.291Z,5.30
2023-04-19T12:44:21.190Z,6.20
2023-04-19T12:46:48.032Z,5.50
2023-04-19T12:49:17.728Z,5.00
2023-04-19T12:51:46.922Z,5.50
2023-04-19T12:54:14.834Z,5.40
2023-04-19T12:56:41.528Z,5.50
2023-04-19T12:59:08.229Z,5.60
2023-04-19T13:01:35.257Z,6.00
2023-04-19T13:04:02.515Z,6.10
2023-04-19T13:06:30.740Z,5.90
2023-04-19T13:09:00.927Z,5.10
2023-04-19T13:11:28.255Z,5.50
2023-04-19T13:13:55.223Z,6.20
2023-04-19T13:16:22.671Z,6.40
2023-04-19T13:18:50.375Z,6.90
2023-04-19T13:21:17.476Z,6.00
2023-04-19T13:23:44.542Z,6.40
2023-04-19T13:26:11.443Z,5.60
2023-04-19T13:28:39.296Z,5.30
2023-04-19T13:31:06.044Z,5.50
2023-04-19T13:33:33.593Z,5.50
2023-04-19T13:36:00.905Z,6.40
2023-04-19T13:38:28.186Z,5.00
2023-04-19T13:40:55.599Z,5.60
2023-04-19T13:43:22.591Z,6.70
2023-04-19T13:45:49.267Z,5.40
2023-04-19T13:48:16.197Z,5.60
2023-04-19T13:50:42.984Z,5.70
2023-04-19T13:53:10.045Z,5.90
2023-04-19T13:55:36.701Z,5.90
2023-04-19T13:58:03.408Z,5.00
2023-04-19T14:00:30.350Z,6.00
2023-04-19T14:02:57.497Z,5.60
2023-04-19T14:05:24.405Z,5.40
2023-04-19T14:07:51.891Z,6.50
2023-04-19T14:10:19.059Z,6.50
2023-04-19T14:12:46.653Z,6.20
2023-04-19T14:15:13.295Z,4.90
2023-04-19T14:17:40.420Z,5.30
2023-04-19T14:20:07.897Z,5.30
2023-04-19T14:22:35.716Z,5.60
2023-04-19T14:25:03.589Z,5.90
2023-04-19T14:27:30.474Z,6.30
2023-04-19T14:29:57.120Z,6.40
2023-04-19T14:32:26.743Z,5.90
2023-04-19T14:34:55.272Z,5.60
2023-04-19T14:37:22.804Z,5.60
2023-04-19T14:39:49.403Z,5.60
2023-04-19T14:42:16.170Z,5.40
2023-04-19T14:44:45.774Z,5.20
2023-04-19T14:47:13.749Z,5.10
2023-04-19T14:49:41.445Z,4.60
2023-04-19T14:52:08.138Z,4.30
2023-04-19T14:54:34.764Z,4.90
2023-04-19T14:57:02.404Z,4.60
2023-04-19T14:59:29.925Z,4.70
2023-04-19T15:01:56.824Z,4.60
2023-04-19T15:04:24.016Z,3.90
2023-04-19T15:06:51.088Z,4.00
2023-04-19T15:09:18.185Z,4.80
2023-04-19T15:11:45.264Z,5.40
2023-04-19T15:14:11.868Z,4.40
2023-04-19T15:16:38.765Z,4.00
2023-04-19T15:19:06.865Z,3.90
2023-04-19T15:21:34.147Z,3.60
2023-04-19T15:24:00.927Z,4.30
2023-04-19T15:26:27.588Z,4.40
2023-04-19T15:28:55.204Z,4.10
2023-04-19T15:31:21.972Z,4.30
2023-04-19T15:33:48.724Z,4.50
2023-04-19T15:36:15.716Z,3.80
2023-04-19T15:38:43.937Z,4.50
2023-04-19T15:41:10.839Z,4.70
2023-04-19T15:43:37.520Z,4.90
2023-04-19T15:46:04.310Z,5.40
2023-04-19T15:48:31.312Z,4.80
2023-04-19T15:50:58.511Z,4.40
2023-04-19T15:53:25.417Z,4.90
2023-04-19T15:55:52.892Z,4.60
2023-04-19T15:58:20.494Z,5.00
2023-04-19T16:00:47.097Z,4.30
2023-04-19T16:03:13.995Z,4.80
2023-04-19T16:05:40.874Z,4.30
2023-04-19T16:08:08.550Z,4.60
2023-04-19T16:10:36.372Z,4.90
2023-04-19T16:13:04.268Z,4.20
2023-04-19T16:15:31.442Z,5.00
2023-04-19T16:17:58.108Z,4.70
2023-04-19T16:20:24.776Z,4.40
2023-04-19T16:22:51.523Z,4.70
2023-04-19T16:25:18.259Z,4.30
2023-04-19T16:27:45.556Z,4.90
2023-04-19T16:30:12.896Z,5.10
2023-04-19T16:32:40.748Z,4.60
2023-04-19T16:35:07.655Z,4.00
2023-04-19T16:37:34.714Z,5.30
2023-04-19T16:40:06.386Z,4.70
2023-04-19T16:42:34.009Z,3.80
2023-04-19T16:45:00.904Z,5.50
2023-04-19T16:47:29.598Z,4.50
2023-04-19T16:49:57.255Z,5.10
2023-04-19T16:52:25.065Z,5.60
2023-04-19T16:54:51.869Z,4.90
2023-04-19T16:57:18.586Z,4.60
2023-04-19T16:59:45.383Z,4.70
2023-04-19T17:02:12.475Z,4.10
2023-04-19T17:04:39.669Z,4.80
2023-04-19T17:07:08.008Z,4.90
2023-04-19T17:09:35.728Z,4.40
2023-04-19T17:12:02.630Z,5.10
2023-04-19T17:14:29.398Z,4.40
2023-04-19T17:16:56.143Z,4.90
2023-04-19T17:19:22.795Z,5.50
2023-04-19T17:21:49.356Z,4.50
2023-04-19T17:24:16.017Z,4.80
2023-04-19T17:26:42.634Z,4.40
2023-04-19T17:29:09.479Z,5.20
2023-04-19T17:31:36.545Z,4.30
2023-04-19T17:34:03.272Z,5.00
2023-04-19T17:36:31.057Z,4.30
2023-04-19T17:38:57.738Z,4.90
2023-04-19T17:41:24.338Z,4.80
2023-04-19T17:43:51.430Z,4.90
2023-04-19T17:46:18.710Z,4.40
2023-04-19T17:48:45.922Z,5.00
2023-04-19T17:51:12.537Z,4.20
2023-04-19T17:53:39.213Z,4.70
2023-04-19T17:56:05.827Z,4.10
2023-04-19T17:58:35.088Z,4.20
2023-04-19T18:01:02.895Z,4.30
2023-04-19T18:03:30.372Z,4.20
2023-04-19T18:05:57.192Z,4.10
2023-04-19T18:08:24.132Z,3.60
2023-04-19T18:10:50.823Z,3.90
2023-04-19T18:13:18.362Z,3.60
2023-04-19T18:15:45.107Z,4.30
2023-04-19T18:18:11.797Z,3.50
2023-04-19T18:20:38.801Z,3.50
2023-04-19T18:23:05.525Z,3.70
2023-04-19T18:25:36.079Z,4.30
2023-04-19T18:28:03.849Z,3.20
2023-04-19T18:30:30.882Z,3.10
2023-04-19T18:32:58.395Z,3.80
2023-04-19T18:35:25.100Z,2.90
2023-04-19T18:37:51.773Z,2.90
2023-04-19T18:40:18.796Z,3.40
2023-04-19T18:42:45.580Z,3.40
2023-04-19T18:45:12.336Z,3.30
2023-04-19T18:47:39.059Z,3.20
2023-04-19T18:50:07.879Z,3.30
2023-04-19T18:52:38.110Z,3.00
2023-04-19T18:55:05.534Z,3.30
2023-04-19T18:57:34.726Z,3.40
2023-04-19T19:00:04.707Z,3.10
2023-04-19T19:02:33.724Z,3.20
2023-04-19T19:05:02.368Z,3.30
2023-04-19T19:10:01.580Z,3.60
2023-04-19T19:12:29.308Z,4.10
2023-04-19T19:14:56.152Z,3.40
2023-04-19T19:17:27.930Z,3.70
2023-04-19T19:19:55.143Z,4.40
2023-04-19T19:22:28.390Z,3.20
2023-04-19T19:24:57.024Z,3.90
2023-04-19T19:27:23.880Z,3.30
2023-04-19T19:29:50.418Z,3.70
2023-04-19T19:32:18.611Z,3.60
2023-04-19T19:34:54.773Z,3.70
2023-04-19T19:37:22.980Z,4.20
2023-04-19T19:39:49.862Z,4.00
2023-04-19T19:42:17.182Z,4.30
2023-04-19T19:44:43.917Z,4.60
2023-04-19T19:47:11.156Z,4.70
2023-04-19T19:52:07.753Z,3.80
2023-04-19T19:54:34.697Z,4.10
2023-04-19T19:59:34.648Z,4.50
2023-04-19T20:02:02.915Z,3.90
2023-04-19T20:04:31.121Z,4.70
2023-04-19T20:07:28.767Z,4.30
2023-04-19T20:09:45.061Z,3.70
2023-04-19T20:12:12.837Z,4.30
2023-04-19T20:14:39.789Z,3.60
2023-04-19T20:17:06.591Z,4.30
2023-04-19T20:19:33.398Z,4.60
2023-04-19T20:22:00.059Z,3.40
2023-04-19T20:24:26.985Z,4.30
2023-04-19T20:26:54.051Z,4.00
2023-04-19T20:29:20.872Z,4.00
2023-04-19T20:31:47.635Z,3.50
2023-04-19T20:34:14.355Z,3.90
2023-04-19T20:36:41.065Z,4.10
2023-04-19T20:39:12.507Z,3.70
2023-04-19T20:41:40.043Z,4.30
2023-04-19T20:44:06.989Z,3.90
2023-04-19T20:46:33.997Z,3.80
2023-04-19T20:49:00.653Z,3.90
2023-04-19T20:51:27.229Z,3.60
2023-04-19T20:53:53.827Z,3.90
2023-04-19T20:56:20.998Z,3.60
2023-04-19T20:58:48.026Z,3.80
2023-04-19T21:01:16.758Z,4.10
2023-04-19T21:03:43.748Z,4.10
2023-04-19T21:06:11.001Z,3.80
2023-04-19T21:08:38.043Z,4.10
2023-04-19T21:11:04.736Z,4.10
2023-04-19T21:13:32.722Z,3.90
2023-04-19T21:15:59.655Z,3.30
2023-04-19T21:18:29.126Z,4.30
2023-04-19T21:20:56.673Z,3.90
2023-04-19T21:23:23.520Z,4.00
2023-04-19T21:25:50.173Z,3.80
2023-04-19T21:28:16.795Z,4.50
2023-04-19T21:30:43.514Z,3.60
2023-04-19T21:33:10.248Z,3.60
2023-04-19T21:35:36.900Z,4.50
2023-04-19T21:38:03.545Z,3.70
2023-04-19T21:40:30.224Z,3.30
2023-04-19T21:42:56.886Z,3.80
2023-04-19T21:45:23.636Z,4.40
2023-04-19T21:47:50.697Z,4.00
2023-04-19T21:50:17.375Z,3.60
2023-04-19T21:52:44.271Z,4.10
2023-04-19T21:55:10.916Z,3.70
2023-04-19T21:57:37.902Z,3.70
2023-04-19T22:00:05.937Z,3.90
2023-04-19T22:02:33.689Z,3.80
2023-04-19T22:05:00.609Z,3.50
2023-04-19T22:07:29.683Z,4.30
2023-04-19T22:09:57.422Z,3.80
2023-04-19T22:12:24.208Z,3.90
2023-04-19T22:14:51.388Z,3.60
2023-04-19T22:17:18.085Z,4.60
2023-04-19T22:19:45.427Z,3.70
2023-04-19T22:22:12.086Z,4.50
2023-04-19T22:24:50.030Z,4.10
2023-04-19T22:27:24.037Z,3.70
2023-04-19T22:29:50.655Z,3.80
2023-04-19T22:32:17.312Z,3.60
2023-04-19T22:34:44.026Z,3.50
2023-04-19T22:37:11.033Z,4.20
2023-04-19T22:39:37.676Z,3.60
2023-04-19T22:42:04.430Z,3.70
2023-04-19T22:44:31.292Z,3.40
2023-04-19T22:46:59.077Z,3.80
2023-04-19T22:49:25.703Z,3.30
2023-04-19T22:51:54.231Z,3.30
2023-04-19T22:54:20.802Z,3.70
2023-04-19T22:56:47.418Z,3.30
2023-04-19T22:59:14.023Z,4.30
2023-04-19T23:01:40.768Z,3.30
2023-04-19T23:04:07.451Z,4.00
2023-04-19T23:06:36.280Z,4.00
2023-04-19T23:09:02.985Z,4.00
2023-04-19T23:11:29.740Z,3.60
2023-04-19T23:13:56.705Z,3.50
2023-04-19T23:16:23.909Z,3.60
2023-04-19T23:18:51.575Z,3.00
2023-04-19T23:21:18.238Z,3.20
2023-04-19T23:23:45.183Z,3.10
2023-04-19T23:26:11.831Z,3.70
2023-04-19T23:28:38.426Z,3.60
2023-04-19T23:31:05.150Z,3.10
2023-04-19T23:33:32.590Z,3.50
2023-04-19T23:35:59.364Z,3.40
2023-04-19T23:38:26.012Z,3.70
2023-04-19T23:40:52.675Z,4.40
2023-04-19T23:43:19.726Z,3.30
2023-04-19T23:45:46.348Z,3.10
2023-04-19T23:48:12.992Z,3.50
2023-04-19T23:50:39.702Z,3.90
2023-04-19T23:53:06.566Z,3.00
2023-04-19T23:55:33.281Z,3.70
2023-04-19T23:57:59.852Z,3.70
